Time;durP1;ratioP1;P1;durP2;ratioP2;P2;SDS_P1;SDS_P2;PMS_P1;PMS_P2;Temp;Humidity;BMP_temperature;BMP_pressure;BME280_temperature;BME280_humidity;BME280_pressure;Samples;Min_cycle;Max_cycle;Signal;HPM_P1;HPM_P2
2021/12/30 00:05:02;;;;;;;1999.90;999.90;;;;;;;8.10;81.03;100410.19;15699636;28;20539;-80
2021/12/30 00:12:35;;;;;;;1999.90;999.90;;;;;;;7.92;82.09;100398.25;15696892;28;20045;-81
2021/12/30 00:20:10;;;;;;;1999.90;999.90;;;;;;;8.03;81.69;100399.59;15686701;28;20116;-79
2021/12/30 00:27:42;;;;;;;1999.90;999.90;;;;;;;8.10;81.31;100396.31;15671204;28;20120;-80
2021/12/30 00:35:16;;;;;;;1999.90;999.90;;;;;;;8.17;81.45;100384.72;15689315;28;20049;-80
2021/12/30 00:42:49;;;;;;;1999.90;999.90;;;;;;;8.25;81.04;100389.47;15688930;28;20083;-79
2021/12/30 00:50:25;;;;;;;1999.90;999.90;;;;;;;8.15;81.19;100370.34;15692216;28;20037;-79
2021/12/30 00:57:57;;;;;;;1999.90;999.90;;;;;;;8.13;81.23;100395.69;15693436;28;20488;-81
2021/12/30 01:05:32;;;;;;;1999.90;999.90;;;;;;;8.39;80.33;100429.91;15680165;28;20479;-81
2021/12/30 01:13:07;;;;;;;1999.90;999.90;;;;;;;8.39;80.57;100426.31;15695109;28;20156;-79
2021/12/30 01:20:42;;;;;;;1999.90;999.90;;;;;;;8.15;81.35;100418.41;15697413;28;20087;-80
2021/12/30 01:28:15;;;;;;;1999.90;999.90;;;;;;;8.34;80.30;100429.22;15703741;28;20040;-81
2021/12/30 01:35:49;;;;;;;1999.90;999.90;;;;;;;8.20;81.36;100415.44;15730491;28;20049;-81
2021/12/30 01:43:23;;;;;;;1999.90;999.90;;;;;;;8.28;80.57;100423.00;15727592;28;20106;-81
2021/12/30 01:50:59;;;;;;;1999.90;999.90;;;;;;;8.31;80.72;100433.44;15728254;28;20048;-81
2021/12/30 01:58:32;;;;;;;1999.90;999.90;;;;;;;8.05;81.52;100404.81;15693259;28;20057;-80
2021/12/30 02:06:06;;;;;;;1999.90;999.90;;;;;;;8.27;81.46;100426.09;15657239;28;20637;-81
2021/12/30 02:13:39;;;;;;;1999.90;999.90;;;;;;;8.07;82.53;100430.31;15687097;28;20053;-80
2021/12/30 02:21:13;;;;;;;1999.90;999.90;;;;;;;8.16;82.78;100414.47;15663912;28;20041;-80
2021/12/30 02:28:46;;;;;;;1999.90;999.90;;;;;;;8.13;83.17;100408.72;15689702;28;20060;-80
2021/12/30 02:36:24;;;;;;;1999.90;999.90;;;;;;;8.05;83.81;100411.19;15676082;28;20454;-81
2021/12/30 02:43:57;;;;;;;1999.90;999.90;;;;;;;8.05;84.10;100413.97;15663397;28;20522;-81
2021/12/30 02:51:31;;;;;;;1999.90;999.90;;;;;;;8.33;83.67;100425.59;15692132;28;20045;-80
2021/12/30 02:59:04;;;;;;;1999.90;999.90;;;;;;;8.43;83.10;100448.72;15704174;22;20085;-64
2021/12/30 03:06:38;;;;;;;1999.90;999.90;;;;;;;8.57;82.58;100458.56;15703930;28;20044;-64
2021/12/30 03:14:11;;;;;;;1999.90;999.90;;;;;;;8.56;82.89;100453.31;15700116;28;20079;-64
2021/12/30 03:21:44;;;;;;;1999.90;999.90;;;;;;;8.62;85.62;100463.13;15710524;28;20068;-67
2021/12/30 03:29:17;;;;;;;1999.90;999.90;;;;;;;8.87;84.17;100464.31;15700238;28;20048;-64
2021/12/30 03:36:51;;;;;;;1999.90;999.90;;;;;;;9.03;83.86;100471.00;15730485;28;20048;-66
2021/12/30 03:44:24;;;;;;;1999.90;999.90;;;;;;;9.00;84.47;100466.09;15685306;28;20419;-64
2021/12/30 03:51:57;;;;;;;1999.90;999.90;;;;;;;9.18;84.92;100500.31;15717216;28;20101;-64
2021/12/30 03:59:30;;;;;;;1999.90;999.90;;;;;;;9.31;84.22;100512.41;15729511;28;20072;-64
2021/12/30 04:07:04;;;;;;;1999.90;999.90;;;;;;;9.35;84.48;100513.38;15705514;28;20056;-65
2021/12/30 04:14:38;;;;;;;1999.90;999.90;;;;;;;9.50;84.42;100547.13;15703749;28;20060;-66
2021/12/30 04:22:14;;;;;;;1999.90;999.90;;;;;;;9.48;86.93;100570.84;15704636;28;20045;-64
2021/12/30 04:29:48;;;;;;;1999.90;999.90;;;;;;;9.59;87.10;100593.59;15730103;28;20132;-64
2021/12/30 04:37:22;;;;;;;1999.90;999.90;;;;;;;9.90;86.88;100604.53;15730876;28;20202;-66
2021/12/30 04:44:54;;;;;;;1999.90;999.90;;;;;;;9.84;87.17;100603.91;15663590;28;20563;-63
2021/12/30 04:52:28;;;;;;;1999.90;999.90;;;;;;;10.18;85.88;100599.41;15689396;28;20103;-65
2021/12/30 05:00:01;;;;;;;1999.90;999.90;;;;;;;10.22;86.44;100614.34;15663808;28;20049;-64
2021/12/30 05:07:35;;;;;;;1999.90;999.90;;;;;;;10.05;87.28;100615.19;15730753;28;20045;-64
2021/12/30 05:15:09;;;;;;;1999.90;999.90;;;;;;;10.38;86.03;100613.47;15691382;28;20375;-65
2021/12/30 05:22:43;;;;;;;;;;;;;;;10.49;85.43;100627.03;15720583;28;20033;-64
2021/12/30 05:30:16;;;;;;;1999.90;999.90;;;;;;;10.53;86.09;100620.47;15710339;28;20383;-64
2021/12/30 05:37:50;;;;;;;1999.90;999.90;;;;;;;10.47;86.51;100624.59;15720556;28;20106;-64
2021/12/30 05:45:23;;;;;;;1999.90;999.90;;;;;;;10.62;85.69;100657.50;15702518;28;20299;-65
2021/12/30 05:52:57;;;;;;;1999.90;999.90;;;;;;;10.77;84.68;100652.53;15704862;28;20067;-65
2021/12/30 06:00:31;;;;;;;1999.90;999.90;;;;;;;10.65;85.41;100658.81;15717434;28;20044;-64
2021/12/30 06:08:06;;;;;;;1999.90;999.90;;;;;;;10.72;85.79;100670.25;15729317;28;20041;-66
2021/12/30 06:15:38;;;;;;;1999.90;999.90;;;;;;;10.80;84.44;100666.63;15712713;28;20468;-67
2021/12/30 06:23:12;;;;;;;1999.90;999.90;;;;;;;10.80;83.90;100661.03;15678307;28;20033;-66
2021/12/30 06:30:45;;;;;;;1999.90;999.90;;;;;;;10.58;83.51;100667.69;15698838;28;20049;-67
2021/12/30 06:38:19;;;;;;;1999.90;999.90;;;;;;;10.61;83.21;100680.97;15690986;28;20056;-65
2021/12/30 06:45:52;;;;;;;1999.90;999.90;;;;;;;10.55;83.10;100698.25;15705958;28;20386;-65
2021/12/30 06:53:26;;;;;;;1999.90;999.90;;;;;;;10.58;82.74;100712.34;15736120;28;20123;-64
2021/12/30 07:00:59;;;;;;;1999.90;999.90;;;;;;;10.53;82.58;100728.47;15732710;28;20128;-66
2021/12/30 07:08:33;;;;;;;1999.90;999.90;;;;;;;10.64;82.93;100726.94;15750080;28;20060;-65
2021/12/30 07:16:06;;;;;;;1999.90;999.90;;;;;;;10.51;83.55;100728.78;15712635;28;20045;-64
2021/12/30 07:23:40;;;;;;;1999.90;999.90;;;;;;;10.61;83.68;100752.72;15669673;28;20041;-66
2021/12/30 07:31:13;;;;;;;1999.90;999.90;;;;;;;10.75;82.95;100752.53;15685545;28;20417;-66
2021/12/30 07:38:48;;;;;;;1999.90;999.90;;;;;;;10.69;82.89;100749.91;15668666;28;20591;-65
2021/12/30 07:46:20;;;;;;;1999.90;999.90;;;;;;;10.80;82.94;100755.94;15685440;28;20056;-66
2021/12/30 07:53:54;;;;;;;1999.90;999.90;;;;;;;10.89;82.80;100779.06;15734508;28;20045;-65
2021/12/30 08:01:27;;;;;;;1999.90;999.90;;;;;;;10.92;82.24;100774.78;15729688;28;20043;-66
2021/12/30 08:09:02;;;;;;;1999.90;999.90;;;;;;;10.84;83.45;100767.28;15706556;28;20090;-65
2021/12/30 08:16:35;;;;;;;1999.90;999.90;;;;;;;11.00;82.65;100762.75;15712502;28;20049;-65
2021/12/30 08:24:09;;;;;;;1999.90;999.90;;;;;;;11.06;83.17;100757.81;15714282;28;20393;-61
2021/12/30 08:31:42;;;;;;;1999.90;999.90;;;;;;;10.99;83.30;100767.53;15703671;28;20037;-68
2021/12/30 08:39:19;;;;;;;1999.90;999.90;;;;;;;10.94;82.74;100790.06;15683798;28;20041;-63
2021/12/30 08:46:52;;;;;;;1999.90;999.90;;;;;;;11.02;83.03;100791.16;15674238;28;20063;-63
2021/12/30 08:54:26;;;;;;;1999.90;999.90;;;;;;;11.00;83.51;100771.13;15711372;28;20496;-69
2021/12/30 09:02:00;;;;;;;1999.90;999.90;;;;;;;10.95;83.20;100782.50;15743428;28;20052;-63
2021/12/30 09:09:35;;;;;;;;;;;;;;;11.25;82.10;100795.38;15740330;23;20120;-56
2021/12/30 09:17:08;;;;;;;1999.90;999.90;;;;;;;11.09;82.28;100808.22;15673766;28;19974;-54
2021/12/30 09:24:43;;;;;;;1999.90;999.90;;;;;;;11.32;81.67;100817.16;15660762;28;20070;-56
2021/12/30 09:32:15;;;;;;;1999.90;999.90;;;;;;;11.20;81.93;100815.09;15697471;28;20140;-52
2021/12/30 09:39:49;;;;;;;1999.90;999.90;;;;;;;11.39;81.07;100825.03;15687666;28;20493;-51
2021/12/30 09:47:22;;;;;;;1999.90;999.90;;;;;;;11.16;81.19;100822.50;15712742;28;20357;-54
2021/12/30 09:54:56;;;;;;;1999.90;999.90;;;;;;;11.14;81.63;100816.41;15717506;28;20379;-52
2021/12/30 10:02:28;;;;;;;1999.90;999.90;;;;;;;11.09;81.82;100810.22;15716327;28;20037;-55
2021/12/30 10:10:03;;;;;;;1999.90;999.90;;;;;;;11.10;81.81;100807.06;15735847;28;20189;-57
2021/12/30 10:17:36;;;;;;;1999.90;999.90;;;;;;;11.07;81.86;100793.78;15734951;28;20110;-55
2021/12/30 10:25:29;;;;;;;1999.90;999.90;;;;;;;11.28;80.88;100805.03;15691890;28;20044;-53
2021/12/30 10:33:12;;;;;;;1999.90;999.90;;;;;;;11.27;81.05;100817.38;15712653;28;20053;-56
2021/12/30 10:40:49;;;;;;;1999.90;999.90;;;;;;;11.09;82.14;100787.88;15649328;28;20041;-54
2021/12/30 10:48:22;;;;;;;1999.90;999.90;;;;;;;11.18;81.54;100803.44;15693147;28;20148;-54
2021/12/30 10:55:56;;;;;;;1999.90;999.90;;;;;;;11.21;81.88;100790.75;15733321;28;20041;-52
2021/12/30 11:03:28;;;;;;;1999.90;999.90;;;;;;;11.34;81.29;100809.25;15674530;28;20053;-53
2021/12/30 11:11:22;;;;;;;1999.90;999.90;;;;;;;11.45;81.40;100795.72;15652112;28;20057;-55
2021/12/30 11:18:56;;;;;;;1999.90;999.90;;;;;;;11.42;81.22;100772.09;15698830;28;20045;-54
2021/12/30 11:26:32;;;;;;;1999.90;999.90;;;;;;;11.73;80.95;100771.72;15738086;28;20151;-55
2021/12/30 11:34:05;;;;;;;1999.90;999.90;;;;;;;11.60;81.57;100772.00;15725242;28;20568;-54
2021/12/30 11:41:41;;;;;;;1999.90;999.90;;;;;;;11.56;81.86;100764.25;15743400;28;20064;-54
2021/12/30 11:49:15;;;;;;;1999.90;999.90;;;;;;;11.60;82.27;100749.63;15694002;28;20476;-54
2021/12/30 11:57:27;;;;;;;1999.90;999.90;;;;;;;11.97;81.36;100751.50;15662300;28;20131;-58
2021/12/30 12:05:19;;;;;;;1999.90;999.90;;;;;;;11.82;82.29;100755.75;15679523;28;20041;-55
2021/12/30 12:12:53;;;;;;;1999.90;999.90;;;;;;;11.79;82.50;100736.88;15709875;28;20045;-56
2021/12/30 12:20:28;;;;;;;1999.90;999.90;;;;;;;11.83;82.64;100739.78;15687710;28;20092;-55
2021/12/30 12:28:03;;;;;;;1999.90;999.90;;;;;;;11.80;83.34;100737.69;15704253;28;20149;-55
2021/12/30 12:35:41;;;;;;;1999.90;999.90;;;;;;;11.76;84.27;100736.69;15677045;28;20045;-56
2021/12/30 12:43:26;;;;;;;1999.90;999.90;;;;;;;11.78;84.39;100726.81;15663711;28;20099;-57
2021/12/30 12:51:01;;;;;;;1999.90;999.90;;;;;;;11.60;85.62;100721.69;15721933;28;20047;-57
2021/12/30 12:58:38;;;;;;;1999.90;999.90;;;;;;;11.78;85.32;100707.25;15721543;28;20052;-55
2021/12/30 13:06:14;;;;;;;1999.90;999.90;;;;;;;11.82;85.38;100699.00;15721803;28;20123;-56
2021/12/30 13:13:48;;;;;;;1999.90;999.90;;;;;;;11.86;85.93;100708.34;15738658;28;20044;-59
2021/12/30 13:21:21;;;;;;;1999.90;999.90;;;;;;;11.95;85.58;100723.06;15700619;28;20056;-54
2021/12/30 13:28:59;;;;;;;1999.90;999.90;;;;;;;12.09;85.25;100704.03;15675883;28;20049;-58
2021/12/30 13:36:31;;;;;;;1999.90;999.90;;;;;;;12.14;85.48;100708.59;15688715;28;20048;-56
2021/12/30 13:44:08;;;;;;;1999.90;999.90;;;;;;;12.22;86.38;100710.50;15719149;28;20447;-52
2021/12/30 13:51:41;;;;;;;1999.90;999.90;;;;;;;12.29;86.11;100713.53;15725957;28;20052;-59
2021/12/30 13:59:15;;;;;;;1999.90;999.90;;;;;;;12.44;86.40;100714.88;15666296;28;20060;-52
2021/12/30 14:06:48;;;;;;;1999.90;999.90;;;;;;;12.43;86.79;100719.66;15700387;28;20057;-54
2021/12/30 14:14:25;;;;;;;1999.90;999.90;;;;;;;12.56;87.14;100728.06;15734666;28;20114;-54
2021/12/30 14:21:58;;;;;;;1999.90;999.90;;;;;;;12.43;87.71;100730.84;15704656;28;20484;-57
2021/12/30 14:29:35;;;;;;;1999.90;999.90;;;;;;;12.58;88.19;100740.56;15716112;28;20051;-55
2021/12/30 14:37:16;;;;;;;1999.90;999.90;;;;;;;12.83;87.82;100737.81;15680608;28;20053;-54
2021/12/30 14:44:53;;;;;;;1999.90;999.90;;;;;;;12.78;88.39;100749.25;15670888;28;20049;-55
2021/12/30 14:52:28;;;;;;;1999.90;999.90;;;;;;;12.81;88.53;100748.53;15636938;28;20147;-54
2021/12/30 15:00:06;;;;;;;1999.90;999.90;;;;;;;12.93;88.54;100754.19;15675186;28;20234;-56
2021/12/30 15:07:39;;;;;;;1999.90;999.90;;;;;;;12.99;88.55;100756.38;15682835;28;20053;-56
2021/12/30 15:15:15;;;;;;;1999.90;999.90;;;;;;;13.03;89.59;100764.13;15761295;23;20063;-64
2021/12/30 15:22:49;;;;;;;1999.90;999.90;;;;;;;13.18;88.69;100772.63;15826749;28;20116;-64
2021/12/30 15:30:23;;;;;;;1999.90;999.90;;;;;;;13.17;89.63;100767.38;15749275;28;20492;-65
2021/12/30 15:37:59;;;;;;;1999.90;999.90;;;;;;;13.28;88.49;100766.59;15796629;28;20480;-64
2021/12/30 15:45:33;;;;;;;1999.90;999.90;;;;;;;13.31;89.05;100767.88;15787920;28;20058;-64
2021/12/30 15:53:07;;;;;;;1999.90;999.90;;;;;;;13.49;88.86;100774.06;15785520;28;20572;-64
2021/12/30 16:00:41;;;;;;;1999.90;999.90;;;;;;;13.53;90.06;100770.19;15797733;28;20070;-62
2021/12/30 16:08:15;;;;;;;1999.90;999.90;;;;;;;13.46;91.83;100784.00;15859402;28;20299;-63
2021/12/30 16:15:49;;;;;;;;;;;;;;;13.64;92.38;100783.75;15872123;28;20051;-63
2021/12/30 16:23:21;;;;;;;1999.90;999.90;;;;;;;13.63;93.23;100805.34;15821262;28;19920;-62
2021/12/30 16:30:56;;;;;;;1999.90;999.90;;;;;;;13.86;92.55;100803.72;15806577;28;20447;-62
2021/12/30 16:38:28;;;;;;;1999.90;999.90;;;;;;;13.99;92.12;100818.53;15785724;28;20048;-64
2021/12/30 16:46:02;;;;;;;1999.90;999.90;;;;;;;14.07;91.82;100819.56;15785478;28;20036;-62
2021/12/30 16:53:35;;;;;;;1999.90;999.90;;;;;;;14.07;92.32;100836.41;15765513;28;20094;-67
2021/12/30 17:01:09;;;;;;;1999.90;999.90;;;;;;;14.20;91.93;100845.59;15749421;28;20147;-66
2021/12/30 17:08:41;;;;;;;1999.90;999.90;;;;;;;14.44;90.28;100845.53;15736735;28;20040;-66
2021/12/30 17:16:16;;;;;;;1999.90;999.90;;;;;;;14.33;91.47;100844.41;15778471;28;20440;-64
2021/12/30 17:23:49;;;;;;;1999.90;999.90;;;;;;;14.35;91.73;100853.28;15760687;28;20048;-65
2021/12/30 17:31:24;;;;;;;1999.90;999.90;;;;;;;14.36;92.25;100861.34;15768313;28;20041;-62
2021/12/30 17:38:56;;;;;;;1999.90;999.90;;;;;;;14.32;92.32;100865.22;15751768;28;20048;-61
2021/12/30 17:46:32;;;;;;;1999.90;999.90;;;;;;;14.52;90.37;100874.66;15777812;28;20044;-65
2021/12/30 17:54:05;;;;;;;1999.90;999.90;;;;;;;14.23;92.22;100887.00;15801294;28;20040;-65
2021/12/30 18:01:39;;;;;;;1999.90;999.90;;;;;;;14.41;91.43;100886.38;15768540;28;20044;-66
2021/12/30 18:09:12;;;;;;;1999.90;999.90;;;;;;;14.52;90.28;100880.28;15802937;28;20106;-67
2021/12/30 18:16:45;;;;;;;1999.90;999.90;;;;;;;14.54;89.97;100875.13;15772673;28;20484;-64
2021/12/30 18:24:18;;;;;;;1999.90;999.90;;;;;;;14.55;89.94;100886.00;15815511;28;20048;-66
2021/12/30 18:31:52;;;;;;;1999.90;999.90;;;;;;;14.47;90.70;100894.56;15782776;28;20056;-65
2021/12/30 18:39:25;;;;;;;1999.90;999.90;;;;;;;14.63;89.22;100893.47;15789999;28;20113;-64
2021/12/30 18:46:59;;;;;;;1999.90;999.90;;;;;;;14.69;88.86;100896.81;15804266;28;20039;-64
2021/12/30 18:54:32;;;;;;;1999.90;999.90;;;;;;;14.80;87.99;100906.41;15792916;28;20305;-65
2021/12/30 19:02:06;;;;;;;1999.90;999.90;;;;;;;14.81;87.66;100913.66;15808876;28;20115;-65
2021/12/30 19:09:39;;;;;;;1999.90;999.90;;;;;;;14.66;87.70;100912.41;15805894;28;20044;-61
2021/12/30 19:17:13;;;;;;;1999.90;999.90;;;;;;;14.88;86.84;100922.28;15810035;28;20048;-64
2021/12/30 19:24:46;;;;;;;1999.90;999.90;;;;;;;14.70;86.95;100916.16;15808907;28;20094;-67
2021/12/30 19:32:19;;;;;;;1999.90;999.90;;;;;;;14.67;87.46;100925.28;15794410;28;20078;-66
2021/12/30 19:39:52;;;;;;;1999.90;999.90;;;;;;;14.67;87.59;100922.47;15800338;28;20055;-64
2021/12/30 19:47:26;;;;;;;1999.90;999.90;;;;;;;14.70;87.89;100935.81;15777874;28;20097;-68
2021/12/30 19:54:59;;;;;;;1999.90;999.90;;;;;;;14.76;86.98;100949.59;15798758;28;20252;-69
2021/12/30 20:02:33;;;;;;;1999.90;999.90;;;;;;;14.78;87.33;100945.25;15795008;28;20571;-67
2021/12/30 20:10:07;;;;;;;1999.90;999.90;;;;;;;14.79;86.55;100948.88;15766763;28;20036;-65
2021/12/30 20:17:42;;;;;;;1999.90;999.90;;;;;;;14.77;86.78;100951.22;15773338;28;20044;-67
2021/12/30 20:25:17;;;;;;;1999.90;999.90;;;;;;;14.84;87.43;100957.06;15751960;28;20036;-65
2021/12/30 20:32:52;;;;;;;1999.90;999.90;;;;;;;14.72;87.59;100963.53;15805800;28;20052;-63
2021/12/30 20:40:27;;;;;;;1999.90;999.90;;;;;;;14.63;88.48;100965.66;15768946;28;20520;-62
2021/12/30 20:48:05;;;;;;;1999.90;999.90;;;;;;;14.69;87.77;100975.47;15807785;28;20051;-64
2021/12/30 20:55:39;;;;;;;1999.90;999.90;;;;;;;14.58;88.42;100966.72;15761062;28;20055;-63
2021/12/30 21:03:14;;;;;;;1999.90;999.90;;;;;;;14.71;87.36;100988.00;15777443;28;20056;-64
2021/12/30 21:10:49;;;;;;;1999.90;999.90;;;;;;;14.87;87.12;100993.69;15787614;28;20040;-61
2021/12/30 21:18:26;;;;;;;1999.90;999.90;;;;;;;14.89;87.10;101004.56;15787190;28;20043;-65
2021/12/30 21:26:01;;;;;;;1999.90;999.90;;;;;;;14.91;86.56;101019.09;15784715;28;20058;-63
2021/12/30 21:33:35;;;;;;;1999.90;999.90;;;;;;;14.63;88.14;101022.66;15768264;28;20046;-62
2021/12/30 21:41:07;;;;;;;1999.90;999.90;;;;;;;14.89;86.61;101041.91;15768354;28;20066;-64
2021/12/30 21:48:41;;;;;;;1999.90;999.90;;;;;;;15.09;85.93;101044.91;15784765;28;20036;-65
2021/12/30 21:56:15;;;;;;;1999.90;999.90;;;;;;;14.78;86.57;101039.94;15790680;28;20051;-64
2021/12/30 22:03:49;;;;;;;1999.90;999.90;;;;;;;14.83;86.73;101029.28;15806136;28;20048;-65
2021/12/30 22:11:21;;;;;;;1999.90;999.90;;;;;;;14.94;86.05;101047.28;15780377;28;20122;-66
2021/12/30 22:18:55;;;;;;;1999.90;999.90;;;;;;;14.86;86.22;101042.63;15784680;28;20036;-65
2021/12/30 22:26:28;;;;;;;1999.90;999.90;;;;;;;14.97;85.60;101035.34;15773602;28;20048;-66
2021/12/30 22:34:02;;;;;;;1999.90;999.90;;;;;;;15.09;85.31;101033.66;15768109;28;20043;-65
2021/12/30 22:41:34;;;;;;;1999.90;999.90;;;;;;;14.79;87.14;101038.78;15750006;28;20081;-66
2021/12/30 22:49:10;;;;;;;1999.90;999.90;;;;;;;14.73;86.84;101030.59;15753176;28;20094;-65
2021/12/30 22:56:42;;;;;;;1999.90;999.90;;;;;;;14.92;85.54;101021.56;15765705;28;20058;-64
2021/12/30 23:04:17;;;;;;;1999.90;999.90;;;;;;;15.10;85.60;101027.69;15754479;28;20044;-65
2021/12/30 23:11:50;;;;;;;1999.90;999.90;;;;;;;14.93;86.74;101014.75;15751226;28;20386;-64
2021/12/30 23:19:27;;;;;;;1999.90;999.90;;;;;;;14.78;87.45;101021.09;15767176;28;20083;-64
2021/12/30 23:27:00;;;;;;;1999.90;999.90;;;;;;;14.96;86.46;101016.03;15793240;28;20465;-66
2021/12/30 23:34:34;;;;;;;1999.90;999.90;;;;;;;14.72;87.90;101031.78;15780762;28;20068;-65
2021/12/30 23:42:07;;;;;;;1999.90;999.90;;;;;;;14.77;87.42;101027.06;15776665;28;20298;-65
2021/12/30 23:49:41;;;;;;;1999.90;999.90;;;;;;;15.06;86.04;101028.75;15792103;28;20052;-65
2021/12/30 23:57:13;;;;;;;1999.90;999.90;;;;;;;14.92;87.28;101034.78;15791454;28;20044;-65
